sensor_id;sensor_type;location;lat;lon;timestamp;P1;durP1;ratioP1;P2;durP2;ratioP2
45252;SDS011;63171;50.520;30.486;2023-08-01T00:00:17;7.30;;;6.60;;
45252;SDS011;63171;50.520;30.486;2023-08-01T00:02:39;10.35;;;7.40;;
45252;SDS011;63171;50.520;30.486;2023-08-01T00:03:31;7.20;;;6.63;;
45252;SDS011;63171;50.520;30.486;2023-08-01T00:04:22;6.47;;;5.97;;
45252;SDS011;63171;50.520;30.486;2023-08-01T00:05:12;7.20;;;6.53;;
45252;SDS011;63171;50.520;30.486;2023-08-01T00:06:02;7.13;;;6.50;;
45252;SDS011;63171;50.520;30.486;2023-08-01T00:06:53;7.90;;;6.50;;
45252;SDS011;63171;50.520;30.486;2023-08-01T00:07:43;8.05;;;7.43;;
45252;SDS011;63171;50.520;30.486;2023-08-01T00:08:33;6.78;;;6.18;;
45252;SDS011;63171;50.520;30.486;2023-08-01T00:09:25;8.75;;;8.05;;
45252;SDS011;63171;50.520;30.486;2023-08-01T00:10:15;8.52;;;7.05;;
45252;SDS011;63171;50.520;30.486;2023-08-01T00:11:05;7.72;;;7.03;;
45252;SDS011;63171;50.520;30.486;2023-08-01T00:11:56;7.88;;;7.28;;
45252;SDS011;63171;50.520;30.486;2023-08-01T00:12:46;7.55;;;6.75;;
45252;SDS011;63171;50.520;30.486;2023-08-01T00:13:35;10.40;;;7.35;;
45252;SDS011;63171;50.520;30.486;2023-08-01T00:14:28;8.80;;;7.88;;
45252;SDS011;63171;50.520;30.486;2023-08-01T00:15:18;9.13;;;7.95;;
45252;SDS011;63171;50.520;30.486;2023-08-01T00:16:08;8.27;;;7.55;;
45252;SDS011;63171;50.520;30.486;2023-08-01T00:16:59;9.60;;;7.80;;
45252;SDS011;63171;50.520;30.486;2023-08-01T00:17:49;8.38;;;7.72;;
45252;SDS011;63171;50.520;30.486;2023-08-01T00:18:40;8.25;;;7.63;;
45252;SDS011;63171;50.520;30.486;2023-08-01T00:19:31;8.18;;;7.53;;
45252;SDS011;63171;50.520;30.486;2023-08-01T00:20:21;7.28;;;6.75;;
45252;SDS011;63171;50.520;30.486;2023-08-01T00:21:12;7.85;;;7.22;;
45252;SDS011;63171;50.520;30.486;2023-08-01T00:22:02;7.85;;;7.25;;
45252;SDS011;63171;50.520;30.486;2023-08-01T00:22:51;8.80;;;7.95;;
45252;SDS011;63171;50.520;30.486;2023-08-01T00:23:42;8.63;;;7.88;;
45252;SDS011;63171;50.520;30.486;2023-08-01T00:24:32;8.70;;;8.00;;
45252;SDS011;63171;50.520;30.486;2023-08-01T00:25:22;12.70;;;7.35;;
45252;SDS011;63171;50.520;30.486;2023-08-01T00:26:12;9.00;;;8.27;;
45252;SDS011;63171;50.520;30.486;2023-08-01T00:27:02;10.65;;;8.80;;
45252;SDS011;63171;50.520;30.486;2023-08-01T00:27:53;8.68;;;7.97;;
45252;SDS011;63171;50.520;30.486;2023-08-01T00:28:43;10.77;;;7.82;;
45252;SDS011;63171;50.520;30.486;2023-08-01T00:29:35;9.02;;;8.13;;
45252;SDS011;63171;50.520;30.486;2023-08-01T00:30:24;8.85;;;8.05;;
45252;SDS011;63171;50.520;30.486;2023-08-01T00:31:15;8.68;;;7.90;;
45252;SDS011;63171;50.520;30.486;2023-08-01T00:32:06;10.88;;;8.00;;
45252;SDS011;63171;50.520;30.486;2023-08-01T00:33:46;8.40;;;7.80;;
45252;SDS011;63171;50.520;30.486;2023-08-01T00:34:36;9.45;;;8.55;;
45252;SDS011;63171;50.520;30.486;2023-08-01T00:35:26;13.98;;;8.07;;
45252;SDS011;63171;50.520;30.486;2023-08-01T00:36:17;9.52;;;8.73;;
45252;SDS011;63171;50.520;30.486;2023-08-01T00:37:07;8.48;;;7.78;;
45252;SDS011;63171;50.520;30.486;2023-08-01T00:37:56;9.77;;;8.57;;
45252;SDS011;63171;50.520;30.486;2023-08-01T00:38:47;10.60;;;7.78;;
45252;SDS011;63171;50.520;30.486;2023-08-01T00:39:37;8.45;;;7.63;;
45252;SDS011;63171;50.520;30.486;2023-08-01T00:40:29;8.45;;;7.75;;
45252;SDS011;63171;50.520;30.486;2023-08-01T00:41:20;7.82;;;7.22;;
45252;SDS011;63171;50.520;30.486;2023-08-01T00:42:10;9.50;;;8.68;;
45252;SDS011;63171;50.520;30.486;2023-08-01T00:43:00;8.35;;;7.72;;
45252;SDS011;63171;50.520;30.486;2023-08-01T00:43:51;8.95;;;8.25;;
45252;SDS011;63171;50.520;30.486;2023-08-01T00:44:42;7.70;;;6.93;;
45252;SDS011;63171;50.520;30.486;2023-08-01T00:45:33;7.00;;;6.30;;
45252;SDS011;63171;50.520;30.486;2023-08-01T00:46:23;8.13;;;6.35;;
45252;SDS011;63171;50.520;30.486;2023-08-01T00:47:14;8.15;;;7.35;;
45252;SDS011;63171;50.520;30.486;2023-08-01T00:48:05;8.07;;;7.47;;
45252;SDS011;63171;50.520;30.486;2023-08-01T00:48:55;8.82;;;7.93;;
45252;SDS011;63171;50.520;30.486;2023-08-01T00:49:47;8.35;;;7.75;;
45252;SDS011;63171;50.520;30.486;2023-08-01T00:50:38;8.10;;;7.28;;
45252;SDS011;63171;50.520;30.486;2023-08-01T00:51:29;7.05;;;6.43;;
45252;SDS011;63171;50.520;30.486;2023-08-01T00:52:20;11.00;;;8.02;;
45252;SDS011;63171;50.520;30.486;2023-08-01T00:53:12;8.13;;;7.22;;
45252;SDS011;63171;50.520;30.486;2023-08-01T00:54:52;8.25;;;7.50;;
45252;SDS011;63171;50.520;30.486;2023-08-01T00:55:43;8.27;;;7.53;;
45252;SDS011;63171;50.520;30.486;2023-08-01T00:56:34;8.82;;;8.00;;
45252;SDS011;63171;50.520;30.486;2023-08-01T00:57:25;10.60;;;8.23;;
45252;SDS011;63171;50.520;30.486;2023-08-01T00:58:15;10.77;;;7.70;;
45252;SDS011;63171;50.520;30.486;2023-08-01T00:59:05;9.90;;;7.18;;
45252;SDS011;63171;50.520;30.486;2023-08-01T00:59:57;9.02;;;8.32;;
45252;SDS011;63171;50.520;30.486;2023-08-01T01:00:47;7.80;;;7.10;;
45252;SDS011;63171;50.520;30.486;2023-08-01T01:03:17;9.20;;;6.90;;
45252;SDS011;63171;50.520;30.486;2023-08-01T01:04:08;8.82;;;7.75;;
45252;SDS011;63171;50.520;30.486;2023-08-01T01:05:00;6.85;;;6.22;;
45252;SDS011;63171;50.520;30.486;2023-08-01T01:05:53;8.55;;;7.35;;
45252;SDS011;63171;50.520;30.486;2023-08-01T01:06:48;7.40;;;6.85;;
45252;SDS011;63171;50.520;30.486;2023-08-01T01:07:42;8.43;;;7.63;;
45252;SDS011;63171;50.520;30.486;2023-08-01T01:08:34;8.32;;;7.35;;
45252;SDS011;63171;50.520;30.486;2023-08-01T01:09:24;8.40;;;7.22;;
45252;SDS011;63171;50.520;30.486;2023-08-01T01:10:20;8.07;;;7.28;;
45252;SDS011;63171;50.520;30.486;2023-08-01T01:12:01;8.32;;;7.50;;
45252;SDS011;63171;50.520;30.486;2023-08-01T01:12:53;8.40;;;7.45;;
45252;SDS011;63171;50.520;30.486;2023-08-01T01:13:44;7.68;;;7.07;;
45252;SDS011;63171;50.520;30.486;2023-08-01T01:14:35;12.90;;;7.85;;
45252;SDS011;63171;50.520;30.486;2023-08-01T01:16:17;7.10;;;6.60;;
45252;SDS011;63171;50.520;30.486;2023-08-01T01:17:07;9.85;;;8.15;;
45252;SDS011;63171;50.520;30.486;2023-08-01T01:17:57;7.57;;;6.93;;
45252;SDS011;63171;50.520;30.486;2023-08-01T01:18:48;9.40;;;8.35;;
45252;SDS011;63171;50.520;30.486;2023-08-01T01:19:37;9.50;;;8.60;;
45252;SDS011;63171;50.520;30.486;2023-08-01T01:20:32;10.65;;;8.68;;
45252;SDS011;63171;50.520;30.486;2023-08-01T01:21:23;9.48;;;7.32;;
45252;SDS011;63171;50.520;30.486;2023-08-01T01:22:13;20.27;;;8.38;;
45252;SDS011;63171;50.520;30.486;2023-08-01T01:23:05;9.35;;;8.43;;
45252;SDS011;63171;50.520;30.486;2023-08-01T01:23:57;8.35;;;7.65;;
45252;SDS011;63171;50.520;30.486;2023-08-01T01:24:48;8.93;;;8.07;;
45252;SDS011;63171;50.520;30.486;2023-08-01T01:25:39;8.90;;;7.47;;
45252;SDS011;63171;50.520;30.486;2023-08-01T01:26:31;9.40;;;8.43;;
45252;SDS011;63171;50.520;30.486;2023-08-01T01:27:21;8.85;;;8.00;;
45252;SDS011;63171;50.520;30.486;2023-08-01T01:28:14;8.95;;;7.22;;
45252;SDS011;63171;50.520;30.486;2023-08-01T01:29:05;6.75;;;6.13;;
45252;SDS011;63171;50.520;30.486;2023-08-01T01:29:58;8.18;;;7.47;;
45252;SDS011;63171;50.520;30.486;2023-08-01T01:30:48;8.15;;;7.45;;
45252;SDS011;63171;50.520;30.486;2023-08-01T01:31:39;8.77;;;7.82;;
45252;SDS011;63171;50.520;30.486;2023-08-01T01:32:30;10.00;;;8.85;;
45252;SDS011;63171;50.520;30.486;2023-08-01T01:33:21;9.57;;;8.73;;
45252;SDS011;63171;50.520;30.486;2023-08-01T01:34:12;8.45;;;7.75;;
45252;SDS011;63171;50.520;30.486;2023-08-01T01:35:03;8.27;;;7.57;;
45252;SDS011;63171;50.520;30.486;2023-08-01T01:35:56;8.98;;;8.07;;
45252;SDS011;63171;50.520;30.486;2023-08-01T01:36:46;9.07;;;8.18;;
45252;SDS011;63171;50.520;30.486;2023-08-01T01:37:35;10.57;;;9.20;;
45252;SDS011;63171;50.520;30.486;2023-08-01T01:38:26;8.40;;;7.45;;
45252;SDS011;63171;50.520;30.486;2023-08-01T01:39:16;8.43;;;7.82;;
45252;SDS011;63171;50.520;30.486;2023-08-01T01:40:07;8.77;;;7.97;;
45252;SDS011;63171;50.520;30.486;2023-08-01T01:40:58;12.10;;;9.18;;
45252;SDS011;63171;50.520;30.486;2023-08-01T01:41:48;9.35;;;8.55;;
45252;SDS011;63171;50.520;30.486;2023-08-01T01:42:39;8.93;;;7.60;;
45252;SDS011;63171;50.520;30.486;2023-08-01T01:44:19;9.15;;;8.27;;
45252;SDS011;63171;50.520;30.486;2023-08-01T01:45:09;11.00;;;9.10;;
45252;SDS011;63171;50.520;30.486;2023-08-01T01:46:49;9.43;;;8.52;;
45252;SDS011;63171;50.520;30.486;2023-08-01T01:47:40;9.38;;;8.48;;
45252;SDS011;63171;50.520;30.486;2023-08-01T01:48:30;9.63;;;8.77;;
45252;SDS011;63171;50.520;30.486;2023-08-01T01:49:21;10.32;;;8.30;;
45252;SDS011;63171;50.520;30.486;2023-08-01T01:50:12;11.68;;;8.20;;
45252;SDS011;63171;50.520;30.486;2023-08-01T01:51:05;10.65;;;9.68;;
45252;SDS011;63171;50.520;30.486;2023-08-01T01:51:55;10.32;;;9.23;;
45252;SDS011;63171;50.520;30.486;2023-08-01T01:52:44;10.27;;;9.35;;
45252;SDS011;63171;50.520;30.486;2023-08-01T01:53:35;8.68;;;7.10;;
45252;SDS011;63171;50.520;30.486;2023-08-01T01:54:25;9.35;;;8.45;;
45252;SDS011;63171;50.520;30.486;2023-08-01T01:55:15;9.38;;;8.45;;
45252;SDS011;63171;50.520;30.486;2023-08-01T01:56:06;10.50;;;8.70;;
45252;SDS011;63171;50.520;30.486;2023-08-01T01:56:56;9.20;;;7.97;;
45252;SDS011;63171;50.520;30.486;2023-08-01T01:57:47;13.32;;;8.65;;
45252;SDS011;63171;50.520;30.486;2023-08-01T01:58:37;9.45;;;8.52;;
45252;SDS011;63171;50.520;30.486;2023-08-01T01:59:28;8.68;;;7.93;;
45252;SDS011;63171;50.520;30.486;2023-08-01T02:00:17;8.15;;;7.47;;
45252;SDS011;63171;50.520;30.486;2023-08-01T02:01:08;10.30;;;8.75;;
45252;SDS011;63171;50.520;30.486;2023-08-01T02:01:59;8.32;;;7.53;;
45252;SDS011;63171;50.520;30.486;2023-08-01T02:02:53;9.25;;;8.45;;
45252;SDS011;63171;50.520;30.486;2023-08-01T02:03:43;8.60;;;7.68;;
45252;SDS011;63171;50.520;30.486;2023-08-01T02:04:34;9.43;;;8.50;;
45252;SDS011;63171;50.520;30.486;2023-08-01T02:05:24;9.70;;;7.60;;
45252;SDS011;63171;50.520;30.486;2023-08-01T02:06:15;8.82;;;7.18;;
45252;SDS011;63171;50.520;30.486;2023-08-01T02:07:06;10.32;;;8.32;;
45252;SDS011;63171;50.520;30.486;2023-08-01T02:07:57;7.95;;;7.28;;
45252;SDS011;63171;50.520;30.486;2023-08-01T02:08:48;10.23;;;7.60;;
45252;SDS011;63171;50.520;30.486;2023-08-01T02:09:37;8.23;;;7.63;;
45252;SDS011;63171;50.520;30.486;2023-08-01T02:10:31;9.25;;;7.07;;
45252;SDS011;63171;50.520;30.486;2023-08-01T02:11:21;8.10;;;7.43;;
45252;SDS011;63171;50.520;30.486;2023-08-01T02:12:12;8.98;;;8.23;;
45252;SDS011;63171;50.520;30.486;2023-08-01T02:13:03;7.80;;;7.10;;
45252;SDS011;63171;50.520;30.486;2023-08-01T02:13:53;9.55;;;7.00;;
45252;SDS011;63171;50.520;30.486;2023-08-01T02:14:44;8.82;;;7.95;;
45252;SDS011;63171;50.520;30.486;2023-08-01T02:15:34;8.05;;;7.30;;
45252;SDS011;63171;50.520;30.486;2023-08-01T02:16:24;9.63;;;7.78;;
45252;SDS011;63171;50.520;30.486;2023-08-01T02:17:15;10.88;;;8.15;;
45252;SDS011;63171;50.520;30.486;2023-08-01T02:18:56;10.13;;;8.80;;
45252;SDS011;63171;50.520;30.486;2023-08-01T02:19:46;8.50;;;7.75;;
45252;SDS011;63171;50.520;30.486;2023-08-01T02:20:35;7.07;;;6.40;;
45252;SDS011;63171;50.520;30.486;2023-08-01T02:21:28;8.15;;;7.40;;
45252;SDS011;63171;50.520;30.486;2023-08-01T02:22:18;8.10;;;7.50;;
45252;SDS011;63171;50.520;30.486;2023-08-01T02:23:09;7.30;;;6.60;;
45252;SDS011;63171;50.520;30.486;2023-08-01T02:23:59;8.63;;;7.80;;
45252;SDS011;63171;50.520;30.486;2023-08-01T02:24:50;8.40;;;7.10;;
45252;SDS011;63171;50.520;30.486;2023-08-01T02:25:40;9.80;;;8.07;;
45252;SDS011;63171;50.520;30.486;2023-08-01T02:26:30;7.88;;;7.22;;
45252;SDS011;63171;50.520;30.486;2023-08-01T02:27:21;9.02;;;8.23;;
45252;SDS011;63171;50.520;30.486;2023-08-01T02:28:11;8.30;;;7.53;;
45252;SDS011;63171;50.520;30.486;2023-08-01T02:29:02;9.63;;;8.43;;
45252;SDS011;63171;50.520;30.486;2023-08-01T02:29:53;8.00;;;7.35;;
45252;SDS011;63171;50.520;30.486;2023-08-01T02:30:43;8.27;;;7.47;;
45252;SDS011;63171;50.520;30.486;2023-08-01T02:31:33;8.43;;;7.25;;
45252;SDS011;63171;50.520;30.486;2023-08-01T02:32:24;10.30;;;8.30;;
45252;SDS011;63171;50.520;30.486;2023-08-01T02:33:14;8.63;;;6.28;;
45252;SDS011;63171;50.520;30.486;2023-08-01T02:34:05;8.52;;;7.85;;
45252;SDS011;63171;50.520;30.486;2023-08-01T02:34:55;8.38;;;7.68;;
45252;SDS011;63171;50.520;30.486;2023-08-01T02:35:45;12.23;;;7.63;;
45252;SDS011;63171;50.520;30.486;2023-08-01T02:36:38;7.95;;;7.20;;
45252;SDS011;63171;50.520;30.486;2023-08-01T02:37:29;8.10;;;7.30;;
45252;SDS011;63171;50.520;30.486;2023-08-01T02:38:19;8.60;;;7.72;;
45252;SDS011;63171;50.520;30.486;2023-08-01T02:39:10;10.05;;;9.13;;
45252;SDS011;63171;50.520;30.486;2023-08-01T02:40:01;9.70;;;8.85;;
45252;SDS011;63171;50.520;30.486;2023-08-01T02:40:56;9.65;;;7.53;;
45252;SDS011;63171;50.520;30.486;2023-08-01T02:41:46;8.68;;;7.45;;
45252;SDS011;63171;50.520;30.486;2023-08-01T02:42:36;8.48;;;7.68;;
45252;SDS011;63171;50.520;30.486;2023-08-01T02:43:27;9.23;;;8.43;;
45252;SDS011;63171;50.520;30.486;2023-08-01T02:45:57;10.00;;;9.00;;
45252;SDS011;63171;50.520;30.486;2023-08-01T02:46:49;13.75;;;10.35;;
45252;SDS011;63171;50.520;30.486;2023-08-01T02:47:40;10.07;;;9.10;;
45252;SDS011;63171;50.520;30.486;2023-08-01T02:48:30;8.80;;;8.02;;
45252;SDS011;63171;50.520;30.486;2023-08-01T02:49:20;10.07;;;9.07;;
45252;SDS011;63171;50.520;30.486;2023-08-01T02:50:12;9.73;;;8.82;;
45252;SDS011;63171;50.520;30.486;2023-08-01T02:51:02;9.48;;;8.57;;
45252;SDS011;63171;50.520;30.486;2023-08-01T02:51:54;10.18;;;8.07;;
45252;SDS011;63171;50.520;30.486;2023-08-01T02:52:44;8.85;;;8.02;;
45252;SDS011;63171;50.520;30.486;2023-08-01T02:53:34;9.15;;;8.43;;
45252;SDS011;63171;50.520;30.486;2023-08-01T02:54:24;8.57;;;7.55;;
45252;SDS011;63171;50.520;30.486;2023-08-01T02:55:14;8.95;;;8.10;;
45252;SDS011;63171;50.520;30.486;2023-08-01T02:56:04;8.80;;;8.00;;
45252;SDS011;63171;50.520;30.486;2023-08-01T02:56:56;8.38;;;6.60;;
45252;SDS011;63171;50.520;30.486;2023-08-01T02:57:47;8.27;;;7.43;;
45252;SDS011;63171;50.520;30.486;2023-08-01T02:58:37;8.40;;;7.63;;
45252;SDS011;63171;50.520;30.486;2023-08-01T02:59:27;8.38;;;7.57;;
45252;SDS011;63171;50.520;30.486;2023-08-01T03:00:17;8.93;;;7.88;;
45252;SDS011;63171;50.520;30.486;2023-08-01T03:01:07;9.50;;;8.43;;
45252;SDS011;63171;50.520;30.486;2023-08-01T03:01:58;10.20;;;8.20;;
45252;SDS011;63171;50.520;30.486;2023-08-01T03:02:49;10.20;;;8.20;;
45252;SDS011;63171;50.520;30.486;2023-08-01T03:03:40;13.75;;;8.02;;
45252;SDS011;63171;50.520;30.486;2023-08-01T03:04:31;7.75;;;6.95;;
45252;SDS011;63171;50.520;30.486;2023-08-01T03:05:21;8.77;;;7.93;;
45252;SDS011;63171;50.520;30.486;2023-08-01T03:06:11;8.02;;;7.32;;
45252;SDS011;63171;50.520;30.486;2023-08-01T03:07:04;10.30;;;9.40;;
45252;SDS011;63171;50.520;30.486;2023-08-01T03:07:54;10.30;;;8.85;;
45252;SDS011;63171;50.520;30.486;2023-08-01T03:08:45;10.98;;;9.20;;
45252;SDS011;63171;50.520;30.486;2023-08-01T03:09:35;9.88;;;8.98;;
45252;SDS011;63171;50.520;30.486;2023-08-01T03:10:25;10.52;;;9.23;;
45252;SDS011;63171;50.520;30.486;2023-08-01T03:11:17;10.95;;;9.85;;
45252;SDS011;63171;50.520;30.486;2023-08-01T03:12:07;9.98;;;8.75;;
45252;SDS011;63171;50.520;30.486;2023-08-01T03:12:57;12.70;;;11.27;;
45252;SDS011;63171;50.520;30.486;2023-08-01T03:13:48;13.45;;;10.75;;
45252;SDS011;63171;50.520;30.486;2023-08-01T03:14:39;14.10;;;10.65;;
45252;SDS011;63171;50.520;30.486;2023-08-01T03:15:30;10.10;;;9.23;;
45252;SDS011;63171;50.520;30.486;2023-08-01T03:16:22;12.65;;;9.52;;
45252;SDS011;63171;50.520;30.486;2023-08-01T03:18:02;11.57;;;9.90;;
45252;SDS011;63171;50.520;30.486;2023-08-01T03:18:53;8.88;;;8.15;;
45252;SDS011;63171;50.520;30.486;2023-08-01T03:19:43;10.98;;;9.82;;
45252;SDS011;63171;50.520;30.486;2023-08-01T03:20:33;10.68;;;9.68;;
45252;SDS011;63171;50.520;30.486;2023-08-01T03:21:24;11.90;;;10.70;;
45252;SDS011;63171;50.520;30.486;2023-08-01T03:22:17;9.68;;;8.68;;
45252;SDS011;63171;50.520;30.486;2023-08-01T03:23:08;9.90;;;9.00;;
45252;SDS011;63171;50.520;30.486;2023-08-01T03:23:58;10.55;;;9.52;;
45252;SDS011;63171;50.520;30.486;2023-08-01T03:24:49;12.68;;;10.32;;
45252;SDS011;63171;50.520;30.486;2023-08-01T03:25:40;10.27;;;9.40;;
45252;SDS011;63171;50.520;30.486;2023-08-01T03:26:30;9.90;;;8.95;;
45252;SDS011;63171;50.520;30.486;2023-08-01T03:27:21;16.50;;;9.90;;
45252;SDS011;63171;50.520;30.486;2023-08-01T03:28:11;10.15;;;8.63;;
45252;SDS011;63171;50.520;30.486;2023-08-01T03:29:03;10.10;;;9.10;;
45252;SDS011;63171;50.520;30.486;2023-08-01T03:29:55;15.75;;;9.95;;
45252;SDS011;63171;50.520;30.486;2023-08-01T03:30:46;12.23;;;10.70;;
45252;SDS011;63171;50.520;30.486;2023-08-01T03:31:39;11.32;;;10.30;;
45252;SDS011;63171;50.520;30.486;2023-08-01T03:32:30;14.57;;;11.30;;
45252;SDS011;63171;50.520;30.486;2023-08-01T03:33:21;10.18;;;9.20;;
45252;SDS011;63171;50.520;30.486;2023-08-01T03:34:10;10.15;;;9.25;;
45252;SDS011;63171;50.520;30.486;2023-08-01T03:35:02;10.68;;;9.57;;
45252;SDS011;63171;50.520;30.486;2023-08-01T03:35:53;14.98;;;9.20;;
45252;SDS011;63171;50.520;30.486;2023-08-01T03:36:44;11.52;;;10.43;;
45252;SDS011;63171;50.520;30.486;2023-08-01T03:37:36;11.90;;;10.93;;
45252;SDS011;63171;50.520;30.486;2023-08-01T03:38:27;12.90;;;10.82;;
45252;SDS011;63171;50.520;30.486;2023-08-01T03:39:18;11.93;;;10.18;;
45252;SDS011;63171;50.520;30.486;2023-08-01T03:40:09;10.98;;;9.88;;
45252;SDS011;63171;50.520;30.486;2023-08-01T03:41:00;12.13;;;10.07;;
45252;SDS011;63171;50.520;30.486;2023-08-01T03:41:53;15.20;;;10.00;;
45252;SDS011;63171;50.520;30.486;2023-08-01T03:42:43;10.55;;;9.50;;
45252;SDS011;63171;50.520;30.486;2023-08-01T03:43:34;19.17;;;11.65;;
45252;SDS011;63171;50.520;30.486;2023-08-01T03:44:26;11.85;;;10.63;;
45252;SDS011;63171;50.520;30.486;2023-08-01T03:45:16;15.77;;;11.23;;
45252;SDS011;63171;50.520;30.486;2023-08-01T03:46:07;12.00;;;10.90;;
45252;SDS011;63171;50.520;30.486;2023-08-01T03:47:16;11.35;;;10.30;;
45252;SDS011;63171;50.520;30.486;2023-08-01T03:48:06;14.15;;;11.05;;
45252;SDS011;63171;50.520;30.486;2023-08-01T03:48:57;14.30;;;10.88;;
45252;SDS011;63171;50.520;30.486;2023-08-01T03:49:47;13.05;;;11.40;;
45252;SDS011;63171;50.520;30.486;2023-08-01T03:50:38;14.75;;;10.82;;
45252;SDS011;63171;50.520;30.486;2023-08-01T03:51:28;17.20;;;11.98;;
45252;SDS011;63171;50.520;30.486;2023-08-01T03:52:19;15.02;;;10.52;;
45252;SDS011;63171;50.520;30.486;2023-08-01T03:53:10;13.80;;;10.77;;
45252;SDS011;63171;50.520;30.486;2023-08-01T03:54:00;13.85;;;12.32;;
45252;SDS011;63171;50.520;30.486;2023-08-01T03:54:53;12.20;;;11.02;;
45252;SDS011;63171;50.520;30.486;2023-08-01T03:55:44;12.20;;;11.00;;
45252;SDS011;63171;50.520;30.486;2023-08-01T03:56:35;13.05;;;11.55;;
45252;SDS011;63171;50.520;30.486;2023-08-01T03:57:25;13.05;;;11.68;;
45252;SDS011;63171;50.520;30.486;2023-08-01T03:58:15;13.18;;;11.77;;
45252;SDS011;63171;50.520;30.486;2023-08-01T03:59:06;13.75;;;11.73;;
45252;SDS011;63171;50.520;30.486;2023-08-01T03:59:56;15.60;;;13.18;;
45252;SDS011;63171;50.520;30.486;2023-08-01T04:00:47;19.92;;;12.85;;
45252;SDS011;63171;50.520;30.486;2023-08-01T04:01:37;14.82;;;11.07;;
45252;SDS011;63171;50.520;30.486;2023-08-01T04:02:27;14.68;;;12.45;;
45252;SDS011;63171;50.520;30.486;2023-08-01T04:03:19;11.18;;;10.00;;
45252;SDS011;63171;50.520;30.486;2023-08-01T04:04:10;18.23;;;12.10;;
45252;SDS011;63171;50.520;30.486;2023-08-01T04:05:01;14.10;;;11.80;;
45252;SDS011;63171;50.520;30.486;2023-08-01T04:05:51;16.05;;;11.15;;
45252;SDS011;63171;50.520;30.486;2023-08-01T04:06:42;20.23;;;11.23;;
45252;SDS011;63171;50.520;30.486;2023-08-01T04:07:32;12.23;;;10.90;;
45252;SDS011;63171;50.520;30.486;2023-08-01T04:08:24;15.13;;;11.82;;
45252;SDS011;63171;50.520;30.486;2023-08-01T04:09:14;14.68;;;12.50;;
45252;SDS011;63171;50.520;30.486;2023-08-01T04:10:04;18.50;;;11.55;;
45252;SDS011;63171;50.520;30.486;2023-08-01T04:10:56;23.02;;;11.15;;
45252;SDS011;63171;50.520;30.486;2023-08-01T04:11:46;12.18;;;10.88;;
45252;SDS011;63171;50.520;30.486;2023-08-01T04:12:36;13.05;;;11.75;;
45252;SDS011;63171;50.520;30.486;2023-08-01T04:13:27;13.68;;;11.13;;
45252;SDS011;63171;50.520;30.486;2023-08-01T04:14:17;15.50;;;11.25;;
45252;SDS011;63171;50.520;30.486;2023-08-01T04:15:07;15.20;;;10.75;;
45252;SDS011;63171;50.520;30.486;2023-08-01T04:15:58;14.82;;;10.27;;
45252;SDS011;63171;50.520;30.486;2023-08-01T04:16:48;18.23;;;10.88;;
45252;SDS011;63171;50.520;30.486;2023-08-01T04:17:38;24.13;;;12.55;;
45252;SDS011;63171;50.520;30.486;2023-08-01T04:18:29;17.80;;;11.80;;
45252;SDS011;63171;50.520;30.486;2023-08-01T04:19:19;13.88;;;12.05;;
45252;SDS011;63171;50.520;30.486;2023-08-01T04:20:10;15.18;;;10.50;;
45252;SDS011;63171;50.520;30.486;2023-08-01T04:21:01;14.73;;;11.00;;
45252;SDS011;63171;50.520;30.486;2023-08-01T04:21:51;12.90;;;11.60;;
45252;SDS011;63171;50.520;30.486;2023-08-01T04:22:42;14.43;;;10.93;;
45252;SDS011;63171;50.520;30.486;2023-08-01T04:23:33;13.77;;;12.00;;
45252;SDS011;63171;50.520;30.486;2023-08-01T04:24:25;15.88;;;11.38;;
45252;SDS011;63171;50.520;30.486;2023-08-01T04:25:16;14.98;;;10.68;;
45252;SDS011;63171;50.520;30.486;2023-08-01T04:26:07;12.90;;;11.60;;
45252;SDS011;63171;50.520;30.486;2023-08-01T04:26:57;12.15;;;11.00;;
45252;SDS011;63171;50.520;30.486;2023-08-01T04:27:48;14.23;;;10.40;;
45252;SDS011;63171;50.520;30.486;2023-08-01T04:28:38;12.18;;;10.48;;
45252;SDS011;63171;50.520;30.486;2023-08-01T04:29:28;11.35;;;10.23;;
45252;SDS011;63171;50.520;30.486;2023-08-01T04:30:21;11.57;;;9.90;;
45252;SDS011;63171;50.520;30.486;2023-08-01T04:31:11;10.77;;;9.70;;
45252;SDS011;63171;50.520;30.486;2023-08-01T04:32:01;11.52;;;10.45;;
45252;SDS011;63171;50.520;30.486;2023-08-01T04:32:52;13.88;;;9.93;;
45252;SDS011;63171;50.520;30.486;2023-08-01T04:33:42;11.48;;;10.25;;
45252;SDS011;63171;50.520;30.486;2023-08-01T04:34:33;12.48;;;10.55;;
45252;SDS011;63171;50.520;30.486;2023-08-01T04:35:23;10.48;;;9.48;;
45252;SDS011;63171;50.520;30.486;2023-08-01T04:36:13;9.85;;;8.15;;
45252;SDS011;63171;50.520;30.486;2023-08-01T04:37:04;12.85;;;9.85;;
45252;SDS011;63171;50.520;30.486;2023-08-01T04:37:55;13.18;;;9.57;;
45252;SDS011;63171;50.520;30.486;2023-08-01T04:38:46;11.38;;;10.32;;
45252;SDS011;63171;50.520;30.486;2023-08-01T04:39:37;10.38;;;9.38;;
45252;SDS011;63171;50.520;30.486;2023-08-01T04:40:27;13.88;;;10.13;;
45252;SDS011;63171;50.520;30.486;2023-08-01T04:41:17;10.93;;;9.70;;
45252;SDS011;63171;50.520;30.486;2023-08-01T04:42:08;11.23;;;9.90;;
45252;SDS011;63171;50.520;30.486;2023-08-01T04:42:57;9.88;;;8.85;;
45252;SDS011;63171;50.520;30.486;2023-08-01T04:43:47;10.80;;;9.65;;
45252;SDS011;63171;50.520;30.486;2023-08-01T04:44:38;12.57;;;10.48;;
45252;SDS011;63171;50.520;30.486;2023-08-01T04:46:19;10.07;;;8.75;;
45252;SDS011;63171;50.520;30.486;2023-08-01T04:47:09;15.43;;;10.63;;
45252;SDS011;63171;50.520;30.486;2023-08-01T04:48:00;12.05;;;9.55;;
45252;SDS011;63171;50.520;30.486;2023-08-01T04:48:51;12.82;;;9.02;;
45252;SDS011;63171;50.520;30.486;2023-08-01T04:49:41;10.02;;;9.00;;
45252;SDS011;63171;50.520;30.486;2023-08-01T04:50:31;12.73;;;8.55;;
45252;SDS011;63171;50.520;30.486;2023-08-01T04:51:22;12.20;;;9.45;;
45252;SDS011;63171;50.520;30.486;2023-08-01T04:52:12;13.88;;;8.73;;
45252;SDS011;63171;50.520;30.486;2023-08-01T04:53:03;14.30;;;9.63;;
45252;SDS011;63171;50.520;30.486;2023-08-01T04:53:55;9.27;;;8.23;;
45252;SDS011;63171;50.520;30.486;2023-08-01T04:54:44;9.30;;;7.82;;
45252;SDS011;63171;50.520;30.486;2023-08-01T04:55:35;13.48;;;9.48;;
45252;SDS011;63171;50.520;30.486;2023-08-01T04:56:25;11.00;;;7.90;;
45252;SDS011;63171;50.520;30.486;2023-08-01T04:57:16;13.30;;;8.40;;
45252;SDS011;63171;50.520;30.486;2023-08-01T04:58:06;9.88;;;8.90;;
45252;SDS011;63171;50.520;30.486;2023-08-01T04:58:56;9.75;;;8.52;;
45252;SDS011;63171;50.520;30.486;2023-08-01T04:59:46;10.40;;;8.40;;
45252;SDS011;63171;50.520;30.486;2023-08-01T05:00:37;9.98;;;7.97;;
45252;SDS011;63171;50.520;30.486;2023-08-01T05:02:17;13.90;;;8.07;;
45252;SDS011;63171;50.520;30.486;2023-08-01T05:03:07;10.10;;;8.43;;
45252;SDS011;63171;50.520;30.486;2023-08-01T05:03:57;8.10;;;7.30;;
45252;SDS011;63171;50.520;30.486;2023-08-01T05:04:48;8.75;;;7.85;;
45252;SDS011;63171;50.520;30.486;2023-08-01T05:05:38;9.50;;;7.45;;
45252;SDS011;63171;50.520;30.486;2023-08-01T05:06:29;9.70;;;7.95;;
45252;SDS011;63171;50.520;30.486;2023-08-01T05:07:19;11.32;;;7.32;;
45252;SDS011;63171;50.520;30.486;2023-08-01T05:08:10;10.07;;;7.75;;
45252;SDS011;63171;50.520;30.486;2023-08-01T05:09:01;9.13;;;7.72;;
45252;SDS011;63171;50.520;30.486;2023-08-01T05:09:53;8.82;;;7.93;;
45252;SDS011;63171;50.520;30.486;2023-08-01T05:10:43;8.45;;;6.85;;
45252;SDS011;63171;50.520;30.486;2023-08-01T05:11:34;9.23;;;7.13;;